sensor_id;sensor_type;location;lat;lon;timestamp;temperature;humidity
3051;DHT22;1535;51.098;6.414;2023-02-12T00:00:42;7.90;99.90
3051;DHT22;1535;51.098;6.414;2023-02-12T00:03:09;7.90;99.90
3051;DHT22;1535;51.098;6.414;2023-02-12T00:05:39;7.90;99.90
3051;DHT22;1535;51.098;6.414;2023-02-12T00:08:07;7.90;99.90
3051;DHT22;1535;51.098;6.414;2023-02-12T00:10:33;7.90;99.90
3051;DHT22;1535;51.098;6.414;2023-02-12T00:13:00;8.00;99.90
3051;DHT22;1535;51.098;6.414;2023-02-12T00:15:27;8.00;99.90
3051;DHT22;1535;51.098;6.414;2023-02-12T00:17:54;8.00;99.90
3051;DHT22;1535;51.098;6.414;2023-02-12T00:20:20;8.00;99.90
3051;DHT22;1535;51.098;6.414;2023-02-12T00:22:49;7.90;99.90
3051;DHT22;1535;51.098;6.414;2023-02-12T00:25:15;7.90;99.90
3051;DHT22;1535;51.098;6.414;2023-02-12T00:27:43;7.90;99.90
3051;DHT22;1535;51.098;6.414;2023-02-12T00:30:10;7.80;99.90
3051;DHT22;1535;51.098;6.414;2023-02-12T00:32:37;7.90;99.90
3051;DHT22;1535;51.098;6.414;2023-02-12T00:35:05;7.90;99.90
3051;DHT22;1535;51.098;6.414;2023-02-12T00:37:33;8.00;99.90
3051;DHT22;1535;51.098;6.414;2023-02-12T00:40:01;7.90;99.90
3051;DHT22;1535;51.098;6.414;2023-02-12T00:42:28;7.90;99.90
3051;DHT22;1535;51.098;6.414;2023-02-12T00:44:55;7.90;99.90
3051;DHT22;1535;51.098;6.414;2023-02-12T00:47:22;7.90;99.90
3051;DHT22;1535;51.098;6.414;2023-02-12T00:49:49;7.80;99.90
3051;DHT22;1535;51.098;6.414;2023-02-12T00:52:16;7.80;99.90
3051;DHT22;1535;51.098;6.414;2023-02-12T00:54:42;7.80;99.90
3051;DHT22;1535;51.098;6.414;2023-02-12T00:57:10;7.90;99.90
3051;DHT22;1535;51.098;6.414;2023-02-12T00:59:37;7.90;99.90
3051;DHT22;1535;51.098;6.414;2023-02-12T01:02:06;8.00;99.90
3051;DHT22;1535;51.098;6.414;2023-02-12T01:04:34;8.00;99.90
3051;DHT22;1535;51.098;6.414;2023-02-12T01:07:00;8.00;99.90
3051;DHT22;1535;51.098;6.414;2023-02-12T01:09:27;7.90;99.90
3051;DHT22;1535;51.098;6.414;2023-02-12T01:11:54;8.00;99.90
3051;DHT22;1535;51.098;6.414;2023-02-12T01:14:22;8.00;99.90
3051;DHT22;1535;51.098;6.414;2023-02-12T01:16:49;8.00;99.90
3051;DHT22;1535;51.098;6.414;2023-02-12T01:19:16;8.00;99.90
3051;DHT22;1535;51.098;6.414;2023-02-12T01:21:43;8.00;99.90
3051;DHT22;1535;51.098;6.414;2023-02-12T01:24:10;8.00;99.90
3051;DHT22;1535;51.098;6.414;2023-02-12T01:26:37;8.00;99.90
3051;DHT22;1535;51.098;6.414;2023-02-12T01:29:05;8.00;99.90
3051;DHT22;1535;51.098;6.414;2023-02-12T01:31:36;8.00;99.90
3051;DHT22;1535;51.098;6.414;2023-02-12T01:34:06;8.00;99.90
3051;DHT22;1535;51.098;6.414;2023-02-12T01:36:33;8.00;99.90
3051;DHT22;1535;51.098;6.414;2023-02-12T01:39:00;8.00;99.90
3051;DHT22;1535;51.098;6.414;2023-02-12T01:41:30;8.00;99.90
3051;DHT22;1535;51.098;6.414;2023-02-12T01:44:08;8.00;99.90
3051;DHT22;1535;51.098;6.414;2023-02-12T01:46:37;8.00;99.90
3051;DHT22;1535;51.098;6.414;2023-02-12T01:49:06;7.90;99.90
3051;DHT22;1535;51.098;6.414;2023-02-12T01:51:34;7.90;99.90
3051;DHT22;1535;51.098;6.414;2023-02-12T01:54:04;7.90;99.90
3051;DHT22;1535;51.098;6.414;2023-02-12T01:56:33;7.90;99.90
3051;DHT22;1535;51.098;6.414;2023-02-12T01:59:01;7.90;99.90
3051;DHT22;1535;51.098;6.414;2023-02-12T02:01:30;7.90;99.90
3051;DHT22;1535;51.098;6.414;2023-02-12T02:04:01;7.80;99.90
3051;DHT22;1535;51.098;6.414;2023-02-12T02:06:32;7.70;99.90
3051;DHT22;1535;51.098;6.414;2023-02-12T02:09:00;7.80;99.90
3051;DHT22;1535;51.098;6.414;2023-02-12T02:11:27;7.80;99.90
3051;DHT22;1535;51.098;6.414;2023-02-12T02:14:11;7.70;99.90
3051;DHT22;1535;51.098;6.414;2023-02-12T02:17:02;7.70;99.90
3051;DHT22;1535;51.098;6.414;2023-02-12T02:19:56;7.70;99.90
3051;DHT22;1535;51.098;6.414;2023-02-12T02:22:31;7.70;99.90
3051;DHT22;1535;51.098;6.414;2023-02-12T02:25:20;7.80;99.90
3051;DHT22;1535;51.098;6.414;2023-02-12T02:28:01;7.70;99.90
3051;DHT22;1535;51.098;6.414;2023-02-12T02:30:39;7.50;99.90
3051;DHT22;1535;51.098;6.414;2023-02-12T02:33:16;7.50;99.90
3051;DHT22;1535;51.098;6.414;2023-02-12T02:35:53;7.50;99.90
3051;DHT22;1535;51.098;6.414;2023-02-12T02:38:29;7.50;99.90
3051;DHT22;1535;51.098;6.414;2023-02-12T02:41:02;7.50;99.90
3051;DHT22;1535;51.098;6.414;2023-02-12T02:43:34;7.50;99.90
3051;DHT22;1535;51.098;6.414;2023-02-12T02:46:06;7.60;99.90
3051;DHT22;1535;51.098;6.414;2023-02-12T02:48:37;7.60;99.90
3051;DHT22;1535;51.098;6.414;2023-02-12T02:51:09;7.60;99.90
3051;DHT22;1535;51.098;6.414;2023-02-12T02:53:40;7.60;99.90
3051;DHT22;1535;51.098;6.414;2023-02-12T02:56:12;7.50;99.90
3051;DHT22;1535;51.098;6.414;2023-02-12T02:58:43;7.60;99.90
3051;DHT22;1535;51.098;6.414;2023-02-12T03:01:16;7.60;99.90
3051;DHT22;1535;51.098;6.414;2023-02-12T03:03:48;7.70;99.90
3051;DHT22;1535;51.098;6.414;2023-02-12T03:06:21;7.70;99.90
3051;DHT22;1535;51.098;6.414;2023-02-12T03:08:55;7.70;99.90
3051;DHT22;1535;51.098;6.414;2023-02-12T03:11:26;7.70;99.90
3051;DHT22;1535;51.098;6.414;2023-02-12T03:13:56;7.80;99.90
3051;DHT22;1535;51.098;6.414;2023-02-12T03:16:27;7.80;99.90
3051;DHT22;1535;51.098;6.414;2023-02-12T03:19:01;7.90;99.90
3051;DHT22;1535;51.098;6.414;2023-02-12T03:21:38;7.90;99.90
3051;DHT22;1535;51.098;6.414;2023-02-12T03:24:11;7.90;99.90
3051;DHT22;1535;51.098;6.414;2023-02-12T03:26:42;7.90;99.90
3051;DHT22;1535;51.098;6.414;2023-02-12T03:29:11;7.90;99.90
3051;DHT22;1535;51.098;6.414;2023-02-12T03:31:47;7.90;99.90
3051;DHT22;1535;51.098;6.414;2023-02-12T03:34:23;7.90;99.90
3051;DHT22;1535;51.098;6.414;2023-02-12T03:36:55;8.00;99.90
3051;DHT22;1535;51.098;6.414;2023-02-12T03:39:28;8.00;99.90
3051;DHT22;1535;51.098;6.414;2023-02-12T03:42:01;7.90;99.90
3051;DHT22;1535;51.098;6.414;2023-02-12T03:44:40;7.80;99.90
3051;DHT22;1535;51.098;6.414;2023-02-12T03:47:17;7.90;99.90
3051;DHT22;1535;51.098;6.414;2023-02-12T03:49:50;7.90;99.90
3051;DHT22;1535;51.098;6.414;2023-02-12T03:52:17;8.00;99.90
3051;DHT22;1535;51.098;6.414;2023-02-12T03:54:45;7.90;99.90
3051;DHT22;1535;51.098;6.414;2023-02-12T03:57:16;7.80;99.90
3051;DHT22;1535;51.098;6.414;2023-02-12T03:59:44;7.80;99.90
3051;DHT22;1535;51.098;6.414;2023-02-12T04:02:14;7.90;99.90
3051;DHT22;1535;51.098;6.414;2023-02-12T04:04:43;8.00;99.90
3051;DHT22;1535;51.098;6.414;2023-02-12T04:07:10;7.90;99.90
3051;DHT22;1535;51.098;6.414;2023-02-12T04:09:37;7.90;99.90
3051;DHT22;1535;51.098;6.414;2023-02-12T04:12:21;7.90;99.90
3051;DHT22;1535;51.098;6.414;2023-02-12T04:14:57;7.80;99.90
3051;DHT22;1535;51.098;6.414;2023-02-12T04:17:35;7.80;99.90
3051;DHT22;1535;51.098;6.414;2023-02-12T04:20:10;7.80;99.90
3051;DHT22;1535;51.098;6.414;2023-02-12T04:22:45;7.90;99.90
3051;DHT22;1535;51.098;6.414;2023-02-12T04:25:24;7.90;99.90
3051;DHT22;1535;51.098;6.414;2023-02-12T04:28:00;7.90;99.90
3051;DHT22;1535;51.098;6.414;2023-02-12T04:30:36;7.90;99.90
3051;DHT22;1535;51.098;6.414;2023-02-12T04:33:08;7.90;99.90
3051;DHT22;1535;51.098;6.414;2023-02-12T04:35:44;8.00;99.90
3051;DHT22;1535;51.098;6.414;2023-02-12T04:38:18;7.90;99.90
3051;DHT22;1535;51.098;6.414;2023-02-12T04:40:47;7.90;99.90
3051;DHT22;1535;51.098;6.414;2023-02-12T04:43:14;7.90;99.90
3051;DHT22;1535;51.098;6.414;2023-02-12T04:45:51;7.90;99.90
3051;DHT22;1535;51.098;6.414;2023-02-12T04:48:19;7.90;99.90
3051;DHT22;1535;51.098;6.414;2023-02-12T04:50:46;7.90;99.90
3051;DHT22;1535;51.098;6.414;2023-02-12T04:53:13;7.90;99.90
3051;DHT22;1535;51.098;6.414;2023-02-12T04:55:40;8.00;99.90
3051;DHT22;1535;51.098;6.414;2023-02-12T04:58:07;7.90;99.90
3051;DHT22;1535;51.098;6.414;2023-02-12T05:00:35;7.90;99.90
3051;DHT22;1535;51.098;6.414;2023-02-12T05:03:01;7.90;99.90
3051;DHT22;1535;51.098;6.414;2023-02-12T05:05:29;7.80;99.90
3051;DHT22;1535;51.098;6.414;2023-02-12T05:07:57;7.80;99.90
3051;DHT22;1535;51.098;6.414;2023-02-12T05:10:24;7.80;99.90
3051;DHT22;1535;51.098;6.414;2023-02-12T05:12:52;7.80;99.90
3051;DHT22;1535;51.098;6.414;2023-02-12T05:15:20;7.80;99.90
3051;DHT22;1535;51.098;6.414;2023-02-12T05:17:46;7.80;99.90
3051;DHT22;1535;51.098;6.414;2023-02-12T05:20:14;7.80;99.90
3051;DHT22;1535;51.098;6.414;2023-02-12T05:22:42;7.80;99.90
3051;DHT22;1535;51.098;6.414;2023-02-12T05:25:09;7.80;99.90
3051;DHT22;1535;51.098;6.414;2023-02-12T05:27:36;7.80;99.90
3051;DHT22;1535;51.098;6.414;2023-02-12T05:30:03;7.90;99.90
3051;DHT22;1535;51.098;6.414;2023-02-12T05:32:30;7.90;99.90
3051;DHT22;1535;51.098;6.414;2023-02-12T05:34:57;7.80;99.90
3051;DHT22;1535;51.098;6.414;2023-02-12T05:37:24;7.70;99.90
3051;DHT22;1535;51.098;6.414;2023-02-12T05:39:52;7.70;99.90
3051;DHT22;1535;51.098;6.414;2023-02-12T05:42:19;7.70;99.90
3051;DHT22;1535;51.098;6.414;2023-02-12T05:44:46;7.70;99.90
3051;DHT22;1535;51.098;6.414;2023-02-12T05:47:12;7.70;99.90
3051;DHT22;1535;51.098;6.414;2023-02-12T05:49:39;7.70;99.90
3051;DHT22;1535;51.098;6.414;2023-02-12T05:52:07;7.80;99.90
3051;DHT22;1535;51.098;6.414;2023-02-12T05:54:34;7.80;99.90
3051;DHT22;1535;51.098;6.414;2023-02-12T05:57:02;7.80;99.90
3051;DHT22;1535;51.098;6.414;2023-02-12T05:59:29;7.80;99.90
3051;DHT22;1535;51.098;6.414;2023-02-12T06:01:56;7.70;99.90
3051;DHT22;1535;51.098;6.414;2023-02-12T06:04:25;7.80;99.90
3051;DHT22;1535;51.098;6.414;2023-02-12T06:06:53;7.70;99.90
3051;DHT22;1535;51.098;6.414;2023-02-12T06:09:21;7.70;99.90
3051;DHT22;1535;51.098;6.414;2023-02-12T06:11:48;7.70;99.90
3051;DHT22;1535;51.098;6.414;2023-02-12T06:14:18;7.80;99.90
3051;DHT22;1535;51.098;6.414;2023-02-12T06:16:46;7.80;99.90
3051;DHT22;1535;51.098;6.414;2023-02-12T06:19:13;7.70;99.90
3051;DHT22;1535;51.098;6.414;2023-02-12T06:21:40;7.60;99.90
3051;DHT22;1535;51.098;6.414;2023-02-12T06:24:08;7.60;99.90
3051;DHT22;1535;51.098;6.414;2023-02-12T06:26:35;7.50;99.90
3051;DHT22;1535;51.098;6.414;2023-02-12T06:29:02;7.30;99.90
3051;DHT22;1535;51.098;6.414;2023-02-12T06:31:31;7.30;99.90
3051;DHT22;1535;51.098;6.414;2023-02-12T06:34:00;7.30;99.90
3051;DHT22;1535;51.098;6.414;2023-02-12T06:36:28;7.30;99.90
3051;DHT22;1535;51.098;6.414;2023-02-12T06:38:55;7.40;99.90
3051;DHT22;1535;51.098;6.414;2023-02-12T06:41:22;7.20;99.90
3051;DHT22;1535;51.098;6.414;2023-02-12T06:43:49;7.30;99.90
3051;DHT22;1535;51.098;6.414;2023-02-12T06:46:16;7.30;99.90
3051;DHT22;1535;51.098;6.414;2023-02-12T06:48:44;7.30;99.90
3051;DHT22;1535;51.098;6.414;2023-02-12T06:51:13;7.40;99.90
3051;DHT22;1535;51.098;6.414;2023-02-12T06:53:40;7.40;99.90
3051;DHT22;1535;51.098;6.414;2023-02-12T06:56:08;7.40;99.90
3051;DHT22;1535;51.098;6.414;2023-02-12T06:58:38;7.50;99.90
3051;DHT22;1535;51.098;6.414;2023-02-12T07:01:09;7.50;99.90
3051;DHT22;1535;51.098;6.414;2023-02-12T07:03:38;7.50;99.90
3051;DHT22;1535;51.098;6.414;2023-02-12T07:06:08;7.60;99.90
3051;DHT22;1535;51.098;6.414;2023-02-12T07:08:35;7.60;99.90
3051;DHT22;1535;51.098;6.414;2023-02-12T07:11:02;7.60;99.90
3051;DHT22;1535;51.098;6.414;2023-02-12T07:13:29;7.60;99.90
3051;DHT22;1535;51.098;6.414;2023-02-12T07:16:02;7.50;99.90
3051;DHT22;1535;51.098;6.414;2023-02-12T07:18:29;7.40;99.90
3051;DHT22;1535;51.098;6.414;2023-02-12T07:20:56;7.50;99.90
3051;DHT22;1535;51.098;6.414;2023-02-12T07:23:24;7.50;99.90
3051;DHT22;1535;51.098;6.414;2023-02-12T07:25:54;7.60;99.90
3051;DHT22;1535;51.098;6.414;2023-02-12T07:28:21;7.70;99.90
3051;DHT22;1535;51.098;6.414;2023-02-12T07:30:48;7.70;99.90
3051;DHT22;1535;51.098;6.414;2023-02-12T07:33:15;7.60;99.90
3051;DHT22;1535;51.098;6.414;2023-02-12T07:35:42;7.60;99.90
3051;DHT22;1535;51.098;6.414;2023-02-12T07:38:09;7.60;99.90
3051;DHT22;1535;51.098;6.414;2023-02-12T07:40:38;7.70;99.90
3051;DHT22;1535;51.098;6.414;2023-02-12T07:43:04;7.90;99.90
3051;DHT22;1535;51.098;6.414;2023-02-12T07:45:32;7.90;99.90
3051;DHT22;1535;51.098;6.414;2023-02-12T07:48:00;8.00;99.90
3051;DHT22;1535;51.098;6.414;2023-02-12T07:50:26;7.90;99.90
3051;DHT22;1535;51.098;6.414;2023-02-12T07:52:54;8.00;99.90
3051;DHT22;1535;51.098;6.414;2023-02-12T07:55:21;8.00;99.90
3051;DHT22;1535;51.098;6.414;2023-02-12T07:57:49;8.10;99.90
3051;DHT22;1535;51.098;6.414;2023-02-12T08:00:16;8.10;99.90
3051;DHT22;1535;51.098;6.414;2023-02-12T08:02:43;8.10;99.90
3051;DHT22;1535;51.098;6.414;2023-02-12T08:05:16;8.20;99.90
3051;DHT22;1535;51.098;6.414;2023-02-12T08:07:43;8.30;99.90
3051;DHT22;1535;51.098;6.414;2023-02-12T08:10:10;8.30;99.90
3051;DHT22;1535;51.098;6.414;2023-02-12T08:12:37;8.40;99.90
3051;DHT22;1535;51.098;6.414;2023-02-12T08:15:06;8.40;99.90
3051;DHT22;1535;51.098;6.414;2023-02-12T08:17:33;8.40;99.90
3051;DHT22;1535;51.098;6.414;2023-02-12T08:20:00;8.50;99.90
3051;DHT22;1535;51.098;6.414;2023-02-12T08:22:27;8.60;99.90
3051;DHT22;1535;51.098;6.414;2023-02-12T08:24:54;8.70;99.90
3051;DHT22;1535;51.098;6.414;2023-02-12T08:27:22;8.80;99.90
3051;DHT22;1535;51.098;6.414;2023-02-12T08:29:48;8.80;99.90
3051;DHT22;1535;51.098;6.414;2023-02-12T08:32:16;9.00;99.90
3051;DHT22;1535;51.098;6.414;2023-02-12T08:34:43;9.00;99.90
3051;DHT22;1535;51.098;6.414;2023-02-12T08:37:11;9.10;99.90
3051;DHT22;1535;51.098;6.414;2023-02-12T08:39:37;9.20;99.90
3051;DHT22;1535;51.098;6.414;2023-02-12T08:42:04;9.30;99.90
3051;DHT22;1535;51.098;6.414;2023-02-12T08:44:31;9.40;99.90
3051;DHT22;1535;51.098;6.414;2023-02-12T08:46:58;9.50;99.90
3051;DHT22;1535;51.098;6.414;2023-02-12T08:49:28;9.50;99.90
3051;DHT22;1535;51.098;6.414;2023-02-12T08:51:58;9.70;99.90
3051;DHT22;1535;51.098;6.414;2023-02-12T08:54:27;9.70;99.90
3051;DHT22;1535;51.098;6.414;2023-02-12T08:56:54;9.90;99.90
3051;DHT22;1535;51.098;6.414;2023-02-12T08:59:22;10.00;99.90
3051;DHT22;1535;51.098;6.414;2023-02-12T09:01:49;10.00;99.90
3051;DHT22;1535;51.098;6.414;2023-02-12T09:04:18;10.00;99.90
3051;DHT22;1535;51.098;6.414;2023-02-12T09:06:48;10.10;99.90
3051;DHT22;1535;51.098;6.414;2023-02-12T09:09:15;10.20;99.90
3051;DHT22;1535;51.098;6.414;2023-02-12T09:11:44;10.30;99.90
3051;DHT22;1535;51.098;6.414;2023-02-12T09:14:13;10.30;99.90
3051;DHT22;1535;51.098;6.414;2023-02-12T09:16:41;10.40;99.90
3051;DHT22;1535;51.098;6.414;2023-02-12T09:19:09;10.30;99.90
3051;DHT22;1535;51.098;6.414;2023-02-12T09:21:38;10.50;99.90
3051;DHT22;1535;51.098;6.414;2023-02-12T09:24:07;10.70;99.90
3051;DHT22;1535;51.098;6.414;2023-02-12T09:26:34;10.80;99.90
3051;DHT22;1535;51.098;6.414;2023-02-12T09:29:02;10.80;99.90
3051;DHT22;1535;51.098;6.414;2023-02-12T09:31:30;11.00;99.90
3051;DHT22;1535;51.098;6.414;2023-02-12T09:33:59;11.00;99.90
3051;DHT22;1535;51.098;6.414;2023-02-12T09:36:27;11.00;99.90
3051;DHT22;1535;51.098;6.414;2023-02-12T09:38:53;10.90;99.90
3051;DHT22;1535;51.098;6.414;2023-02-12T09:41:57;11.00;99.90
3051;DHT22;1535;51.098;6.414;2023-02-12T09:44:32;11.00;99.90
3051;DHT22;1535;51.098;6.414;2023-02-12T09:47:03;11.30;99.90
3051;DHT22;1535;51.098;6.414;2023-02-12T09:49:50;11.40;99.90
3051;DHT22;1535;51.098;6.414;2023-02-12T09:52:23;11.50;99.90
3051;DHT22;1535;51.098;6.414;2023-02-12T09:54:51;11.40;99.90
3051;DHT22;1535;51.098;6.414;2023-02-12T09:57:24;11.50;99.90
3051;DHT22;1535;51.098;6.414;2023-02-12T09:59:57;11.60;99.90
3051;DHT22;1535;51.098;6.414;2023-02-12T10:02:25;11.50;99.90
3051;DHT22;1535;51.098;6.414;2023-02-12T10:04:53;11.40;99.90
3051;DHT22;1535;51.098;6.414;2023-02-12T10:07:30;11.40;99.90
3051;DHT22;1535;51.098;6.414;2023-02-12T10:10:13;11.50;99.90
3051;DHT22;1535;51.098;6.414;2023-02-12T10:12:50;11.80;99.90
3051;DHT22;1535;51.098;6.414;2023-02-12T10:15:27;11.50;99.90
3051;DHT22;1535;51.098;6.414;2023-02-12T10:18:09;11.30;99.90
3051;DHT22;1535;51.098;6.414;2023-02-12T10:20:52;11.50;99.90
3051;DHT22;1535;51.098;6.414;2023-02-12T10:23:32;11.50;99.90
3051;DHT22;1535;51.098;6.414;2023-02-12T10:26:08;11.40;99.90
3051;DHT22;1535;51.098;6.414;2023-02-12T10:28:41;11.60;99.90
3051;DHT22;1535;51.098;6.414;2023-02-12T10:31:14;11.60;99.90
3051;DHT22;1535;51.098;6.414;2023-02-12T10:33:44;11.70;99.90
3051;DHT22;1535;51.098;6.414;2023-02-12T10:36:18;11.70;99.90
3051;DHT22;1535;51.098;6.414;2023-02-12T10:38:53;11.70;99.90
3051;DHT22;1535;51.098;6.414;2023-02-12T10:41:21;11.80;99.90
3051;DHT22;1535;51.098;6.414;2023-02-12T10:43:52;11.80;99.90
3051;DHT22;1535;51.098;6.414;2023-02-12T10:46:19;11.70;99.90
3051;DHT22;1535;51.098;6.414;2023-02-12T10:48:48;11.70;99.90
3051;DHT22;1535;51.098;6.414;2023-02-12T10:51:29;11.60;99.90
3051;DHT22;1535;51.098;6.414;2023-02-12T10:54:30;11.50;99.90
3051;DHT22;1535;51.098;6.414;2023-02-12T10:56:57;11.50;99.90
3051;DHT22;1535;51.098;6.414;2023-02-12T10:59:26;11.60;99.90
3051;DHT22;1535;51.098;6.414;2023-02-12T11:01:55;11.70;99.90
3051;DHT22;1535;51.098;6.414;2023-02-12T11:04:25;11.50;99.90
3051;DHT22;1535;51.098;6.414;2023-02-12T11:06:57;11.40;99.90
3051;DHT22;1535;51.098;6.414;2023-02-12T11:09:27;11.50;99.90
3051;DHT22;1535;51.098;6.414;2023-02-12T11:11:54;11.60;99.90
3051;DHT22;1535;51.098;6.414;2023-02-12T11:14:21;11.70;99.90
3051;DHT22;1535;51.098;6.414;2023-02-12T11:16:53;11.80;99.90
3051;DHT22;1535;51.098;6.414;2023-02-12T11:19:23;11.90;99.90
3051;DHT22;1535;51.098;6.414;2023-02-12T11:21:50;11.90;99.90
3051;DHT22;1535;51.098;6.414;2023-02-12T11:24:26;11.90;99.90
3051;DHT22;1535;51.098;6.414;2023-02-12T11:27:11;12.10;99.90
3051;DHT22;1535;51.098;6.414;2023-02-12T11:29:45;12.00;99.90
3051;DHT22;1535;51.098;6.414;2023-02-12T11:32:17;11.80;99.90
3051;DHT22;1535;51.098;6.414;2023-02-12T11:35:03;12.00;99.90
3051;DHT22;1535;51.098;6.414;2023-02-12T11:37:32;12.00;99.90
3051;DHT22;1535;51.098;6.414;2023-02-12T11:40:01;12.10;99.90
3051;DHT22;1535;51.098;6.414;2023-02-12T11:42:33;12.10;99.90
3051;DHT22;1535;51.098;6.414;2023-02-12T11:45:01;12.00;99.90
3051;DHT22;1535;51.098;6.414;2023-02-12T11:47:31;12.20;99.90
3051;DHT22;1535;51.098;6.414;2023-02-12T11:50:03;12.50;99.90
3051;DHT22;1535;51.098;6.414;2023-02-12T11:52:34;12.80;99.90
3051;DHT22;1535;51.098;6.414;2023-02-12T11:55:03;12.90;99.90
3051;DHT22;1535;51.098;6.414;2023-02-12T11:57:38;13.00;99.90
3051;DHT22;1535;51.098;6.414;2023-02-12T12:00:13;12.90;99.90
3051;DHT22;1535;51.098;6.414;2023-02-12T12:02:46;12.90;99.90
3051;DHT22;1535;51.098;6.414;2023-02-12T12:05:18;12.90;99.90
3051;DHT22;1535;51.098;6.414;2023-02-12T12:07:48;13.00;99.90
3051;DHT22;1535;51.098;6.414;2023-02-12T12:10:20;12.90;99.90
3051;DHT22;1535;51.098;6.414;2023-02-12T12:12:54;12.90;99.90
3051;DHT22;1535;51.098;6.414;2023-02-12T12:15:25;13.30;99.90
3051;DHT22;1535;51.098;6.414;2023-02-12T12:18:20;13.30;99.90
3051;DHT22;1535;51.098;6.414;2023-02-12T12:21:12;13.20;99.90
3051;DHT22;1535;51.098;6.414;2023-02-12T12:23:42;13.60;99.90
3051;DHT22;1535;51.098;6.414;2023-02-12T12:26:13;13.90;99.90
3051;DHT22;1535;51.098;6.414;2023-02-12T12:28:46;13.60;99.90
3051;DHT22;1535;51.098;6.414;2023-02-12T12:31:18;13.60;99.90
3051;DHT22;1535;51.098;6.414;2023-02-12T12:33:51;13.00;99.90
3051;DHT22;1535;51.098;6.414;2023-02-12T12:36:37;13.00;99.90
3051;DHT22;1535;51.098;6.414;2023-02-12T12:39:16;13.20;99.90
3051;DHT22;1535;51.098;6.414;2023-02-12T12:42:00;13.10;99.90
3051;DHT22;1535;51.098;6.414;2023-02-12T12:44:40;12.90;99.90
3051;DHT22;1535;51.098;6.414;2023-02-12T12:47:20;13.00;99.90
3051;DHT22;1535;51.098;6.414;2023-02-12T12:49:57;13.00;99.90
3051;DHT22;1535;51.098;6.414;2023-02-12T12:58:38;13.20;99.90
3051;DHT22;1535;51.098;6.414;2023-02-12T13:01:31;13.20;99.90
3051;DHT22;1535;51.098;6.414;2023-02-12T13:07:19;13.40;99.90
3051;DHT22;1535;51.098;6.414;2023-02-12T13:10:06;13.30;99.90
3051;DHT22;1535;51.098;6.414;2023-02-12T13:12:45;13.50;99.90
3051;DHT22;1535;51.098;6.414;2023-02-12T13:15:20;12.90;99.90
3051;DHT22;1535;51.098;6.414;2023-02-12T13:17:52;12.70;99.90
3051;DHT22;1535;51.098;6.414;2023-02-12T13:20:32;12.90;99.90
3051;DHT22;1535;51.098;6.414;2023-02-12T13:23:08;12.70;99.90
3051;DHT22;1535;51.098;6.414;2023-02-12T13:25:42;13.00;99.90
3051;DHT22;1535;51.098;6.414;2023-02-12T13:28:14;13.00;99.90
3051;DHT22;1535;51.098;6.414;2023-02-12T13:30:47;13.10;99.90
3051;DHT22;1535;51.098;6.414;2023-02-12T13:33:18;13.20;99.90
3051;DHT22;1535;51.098;6.414;2023-02-12T13:35:50;12.80;99.90
3051;DHT22;1535;51.098;6.414;2023-02-12T13:38:24;12.70;99.90
3051;DHT22;1535;51.098;6.414;2023-02-12T13:40:54;12.50;99.90
3051;DHT22;1535;51.098;6.414;2023-02-12T13:43:35;12.40;99.90
3051;DHT22;1535;51.098;6.414;2023-02-12T13:46:08;12.40;99.90
3051;DHT22;1535;51.098;6.414;2023-02-12T13:48:46;12.50;99.90
3051;DHT22;1535;51.098;6.414;2023-02-12T13:51:23;12.50;99.90
3051;DHT22;1535;51.098;6.414;2023-02-12T13:54:05;12.40;99.90
3051;DHT22;1535;51.098;6.414;2023-02-12T13:56:40;12.40;99.90
3051;DHT22;1535;51.098;6.414;2023-02-12T13:59:38;12.20;99.90
3051;DHT22;1535;51.098;6.414;2023-02-12T14:02:25;12.30;99.90
3051;DHT22;1535;51.098;6.414;2023-02-12T14:04:55;12.00;99.90
3051;DHT22;1535;51.098;6.414;2023-02-12T14:07:39;12.20;99.90
3051;DHT22;1535;51.098;6.414;2023-02-12T14:10:20;12.10;99.90
3051;DHT22;1535;51.098;6.414;2023-02-12T14:12:48;11.90;99.90
3051;DHT22;1535;51.098;6.414;2023-02-12T14:15:29;11.70;99.90
3051;DHT22;1535;51.098;6.414;2023-02-12T14:18:06;11.70;99.90
3051;DHT22;1535;51.098;6.414;2023-02-12T14:20:34;11.90;99.90
3051;DHT22;1535;51.098;6.414;2023-02-12T14:25:48;12.00;99.90
3051;DHT22;1535;51.098;6.414;2023-02-12T14:28:25;11.90;99.90
3051;DHT22;1535;51.098;6.414;2023-02-12T14:37:16;12.10;99.90
3051;DHT22;1535;51.098;6.414;2023-02-12T14:39:43;12.10;99.90
3051;DHT22;1535;51.098;6.414;2023-02-12T14:42:51;11.90;99.90
3051;DHT22;1535;51.098;6.414;2023-02-12T14:45:30;11.60;99.90
3051;DHT22;1535;51.098;6.414;2023-02-12T14:47:57;11.60;99.90
3051;DHT22;1535;51.098;6.414;2023-02-12T14:50:29;11.80;99.90
3051;DHT22;1535;51.098;6.414;2023-02-12T14:53:06;11.70;99.90
3051;DHT22;1535;51.098;6.414;2023-02-12T14:55:34;11.80;99.90
3051;DHT22;1535;51.098;6.414;2023-02-12T14:58:12;11.80;99.90
3051;DHT22;1535;51.098;6.414;2023-02-12T15:00:45;11.90;99.90
3051;DHT22;1535;51.098;6.414;2023-02-12T15:03:20;11.80;99.90
3051;DHT22;1535;51.098;6.414;2023-02-12T15:05:55;11.60;99.90
3051;DHT22;1535;51.098;6.414;2023-02-12T15:08:29;11.60;99.90
3051;DHT22;1535;51.098;6.414;2023-02-12T15:11:04;11.40;99.90
3051;DHT22;1535;51.098;6.414;2023-02-12T15:13:43;11.20;99.90
3051;DHT22;1535;51.098;6.414;2023-02-12T15:16:14;11.20;99.90
3051;DHT22;1535;51.098;6.414;2023-02-12T15:18:49;11.40;99.90
3051;DHT22;1535;51.098;6.414;2023-02-12T15:21:21;11.60;99.90
3051;DHT22;1535;51.098;6.414;2023-02-12T15:24:01;11.60;99.90
3051;DHT22;1535;51.098;6.414;2023-02-12T15:26:30;11.50;99.90
3051;DHT22;1535;51.098;6.414;2023-02-12T15:29:00;11.70;99.90
3051;DHT22;1535;51.098;6.414;2023-02-12T15:31:29;11.60;99.90
3051;DHT22;1535;51.098;6.414;2023-02-12T15:33:59;11.50;99.90
3051;DHT22;1535;51.098;6.414;2023-02-12T15:36:28;11.20;99.90
3051;DHT22;1535;51.098;6.414;2023-02-12T15:38:56;11.30;99.90
3051;DHT22;1535;51.098;6.414;2023-02-12T15:41:28;11.10;99.90
3051;DHT22;1535;51.098;6.414;2023-02-12T15:43:55;11.10;99.90
3051;DHT22;1535;51.098;6.414;2023-02-12T15:46:24;10.90;99.90
3051;DHT22;1535;51.098;6.414;2023-02-12T15:48:51;11.00;99.90
3051;DHT22;1535;51.098;6.414;2023-02-12T15:51:25;10.80;99.90
3051;DHT22;1535;51.098;6.414;2023-02-12T15:53:54;10.80;99.90
3051;DHT22;1535;51.098;6.414;2023-02-12T15:56:22;10.70;99.90
3051;DHT22;1535;51.098;6.414;2023-02-12T15:58:51;10.90;99.90
3051;DHT22;1535;51.098;6.414;2023-02-12T16:01:20;10.80;99.90
3051;DHT22;1535;51.098;6.414;2023-02-12T16:03:50;10.90;99.90
3051;DHT22;1535;51.098;6.414;2023-02-12T16:06:17;10.90;99.90
3051;DHT22;1535;51.098;6.414;2023-02-12T16:08:46;11.10;99.90
3051;DHT22;1535;51.098;6.414;2023-02-12T16:11:17;11.00;99.90
3051;DHT22;1535;51.098;6.414;2023-02-12T16:13:47;10.80;99.90
3051;DHT22;1535;51.098;6.414;2023-02-12T16:16:20;10.80;99.90
3051;DHT22;1535;51.098;6.414;2023-02-12T16:19:04;10.80;99.90
3051;DHT22;1535;51.098;6.414;2023-02-12T16:21:34;10.70;99.90
3051;DHT22;1535;51.098;6.414;2023-02-12T16:24:03;10.60;99.90
3051;DHT22;1535;51.098;6.414;2023-02-12T16:26:30;10.60;99.90
3051;DHT22;1535;51.098;6.414;2023-02-12T16:31:52;10.80;99.90
3051;DHT22;1535;51.098;6.414;2023-02-12T16:34:29;10.90;99.90
3051;DHT22;1535;51.098;6.414;2023-02-12T16:36:56;10.70;99.90
3051;DHT22;1535;51.098;6.414;2023-02-12T16:42:27;10.70;99.90
3051;DHT22;1535;51.098;6.414;2023-02-12T16:44:54;10.70;99.90
3051;DHT22;1535;51.098;6.414;2023-02-12T16:47:23;10.70;99.90
3051;DHT22;1535;51.098;6.414;2023-02-12T16:49:54;10.60;99.90
3051;DHT22;1535;51.098;6.414;2023-02-12T16:52:32;10.50;99.90
3051;DHT22;1535;51.098;6.414;2023-02-12T16:54:59;10.50;99.90
3051;DHT22;1535;51.098;6.414;2023-02-12T16:57:26;10.50;99.90
3051;DHT22;1535;51.098;6.414;2023-02-12T16:59:53;10.40;99.90